Time;durP1;ratioP1;P1;durP2;ratioP2;P2;SDS_P1;SDS_P2;PMS_P1;PMS_P2;Temp;Humidity;BMP_temperature;BMP_pressure;BME280_temperature;BME280_humidity;BME280_pressure;Samples;Min_cycle;Max_cycle;Signal;HPM_P1;HPM_P2
2023/05/16 00:00:24;;;;;;;3.00;2.40;;;21.80;57.70;22.50;100768.00;;;;5032428;28;20230;-59
2023/05/16 00:02:50;;;;;;;2.33;2.13;;;21.80;57.70;22.50;100768.00;;;;5029256;28;20807;-57
2023/05/16 00:05:16;;;;;;;2.27;2.07;;;21.80;57.80;22.50;100761.00;;;;5031013;28;20863;-58
2023/05/16 00:07:43;;;;;;;2.53;2.33;;;21.80;57.80;22.50;100761.00;;;;5035488;28;20217;-58
2023/05/16 00:10:09;;;;;;;2.40;2.20;;;21.70;57.70;22.50;100761.00;;;;5031237;28;20217;-58
2023/05/16 00:12:38;;;;;;;2.40;2.20;;;21.70;57.80;22.50;100765.00;;;;5029326;28;20179;-59
2023/05/16 00:15:07;;;;;;;2.40;2.20;;;21.70;57.70;22.50;100766.00;;;;5030209;28;20171;-58
2023/05/16 00:17:34;;;;;;;2.30;2.10;;;21.70;57.80;22.40;100769.00;;;;5029569;28;20179;-57
2023/05/16 00:20:01;;;;;;;2.40;2.20;;;21.70;57.80;22.40;100708.00;;;;5032750;28;20214;-57
2023/05/16 00:22:27;;;;;;;2.23;2.03;;;21.70;58.40;22.40;100766.00;;;;5032652;28;20648;-57
2023/05/16 00:24:53;;;;;;;2.23;2.03;;;21.70;57.90;22.40;100772.00;;;;5032232;28;20167;-57
2023/05/16 00:27:18;;;;;;;2.50;2.30;;;21.70;57.90;22.40;100785.00;;;;5033137;28;20182;-57
2023/05/16 00:29:44;;;;;;;2.50;1.90;;;21.60;57.80;22.40;100781.00;;;;5033286;28;20498;-57
2023/05/16 00:32:11;;;;;;;2.47;2.20;;;21.60;57.90;22.40;100777.00;;;;5029919;28;20318;-58
2023/05/16 00:34:37;;;;;;;2.83;2.03;;;21.60;57.90;22.30;100785.00;;;;5029517;28;20254;-58
2023/05/16 00:37:02;;;;;;;2.30;2.10;;;21.60;58.00;22.30;100772.00;;;;5029503;28;20282;-58
2023/05/16 00:39:29;;;;;;;2.30;2.10;;;21.60;58.00;22.30;100781.00;;;;5030198;28;20302;-57
2023/05/16 00:41:56;;;;;;;2.63;2.10;;;21.60;58.00;22.30;100784.00;;;;5030009;28;20389;-58
2023/05/16 00:44:22;;;;;;;2.00;1.90;;;21.50;57.80;22.30;100778.00;;;;5029547;28;20206;-57
2023/05/16 00:46:47;;;;;;;2.20;2.00;;;21.50;57.90;22.20;100781.00;;;;5029543;28;20175;-57
2023/05/16 00:49:13;;;;;;;2.37;2.17;;;21.50;57.90;22.20;100784.00;;;;5029472;28;20186;-58
2023/05/16 00:51:39;;;;;;;2.20;2.00;;;21.50;57.90;22.20;100790.00;;;;5028657;28;20202;-57
2023/05/16 00:54:05;;;;;;;2.37;2.17;;;21.50;57.90;22.20;100782.00;;;;5029776;28;20179;-57
2023/05/16 00:56:31;;;;;;;2.50;2.30;;;21.50;57.90;22.20;100789.00;;;;5028007;28;20179;-56
2023/05/16 00:58:57;;;;;;;2.47;2.20;;;21.50;57.90;22.20;100795.00;;;;5030039;28;20276;-56
2023/05/16 01:01:24;;;;;;;2.10;2.00;;;21.40;57.80;22.10;100795.00;;;;5029361;28;20203;-58
2023/05/16 01:03:49;;;;;;;2.27;2.07;;;21.40;57.80;22.10;100792.00;;;;5028276;28;20178;-57
2023/05/16 01:06:15;;;;;;;2.17;2.00;;;21.40;57.80;22.10;100783.00;;;;5028651;28;20171;-56
2023/05/16 01:08:41;;;;;;;2.00;1.90;;;21.40;57.80;22.10;100793.00;;;;5029711;28;20248;-57
2023/05/16 01:11:25;;;;;;;2.30;2.10;;;21.40;57.70;22.10;100782.00;;;;5029795;28;20195;-57
2023/05/16 01:14:07;;;;;;;2.03;1.93;;;21.30;57.80;22.00;100789.00;;;;5029131;28;20231;-57
2023/05/16 01:16:51;;;;;;;2.03;1.90;;;21.30;57.70;22.00;100799.00;;;;5027287;28;20171;-56
2023/05/16 01:19:46;;;;;;;2.17;2.00;;;21.30;57.70;22.00;100792.00;;;;5027828;28;20208;-56
2023/05/16 01:22:42;;;;;;;2.60;1.80;;;21.30;57.70;22.00;100797.00;;;;5027904;28;20203;-58
2023/05/16 01:25:44;;;;;;;1.93;1.83;;;21.30;57.70;21.90;100800.00;;;;5028698;28;20175;-57
2023/05/16 01:28:10;;;;;;;2.13;2.00;;;21.30;57.80;21.90;100805.00;;;;5019245;28;20194;-57
2023/05/16 01:30:38;;;;;;;2.17;2.07;;;21.30;57.70;21.90;100814.00;;;;5028180;28;20233;-57
2023/05/16 01:33:04;;;;;;;2.00;1.90;;;21.20;57.70;21.90;100802.00;;;;5029232;28;20262;-58
2023/05/16 01:35:30;;;;;;;2.37;2.17;;;21.30;57.80;21.90;100736.00;;;;5029019;28;20508;-61
2023/05/16 01:38:49;;;;;;;2.00;1.90;;;21.20;57.60;21.90;100807.00;;;;5030810;28;20261;-57
2023/05/16 01:41:21;;;;;;;2.10;1.90;;;21.20;57.70;21.80;100814.00;;;;5030735;28;20241;-57
2023/05/16 01:43:50;;;;;;;2.00;1.90;;;21.20;57.70;21.80;100807.00;;;;5034399;28;20814;-58
2023/05/16 01:46:28;;;;;;;1.80;1.70;;;21.20;57.70;21.80;100817.00;;;;5035455;28;20240;-56
2023/05/16 01:49:21;;;;;;;1.90;1.80;;;21.20;57.70;21.80;100806.00;;;;5030234;28;20171;-56
2023/05/16 01:52:08;;;;;;;1.83;1.73;;;21.10;57.50;21.80;100831.00;;;;5028310;28;20535;-58
2023/05/16 01:54:36;;;;;;;2.00;1.90;;;21.10;57.50;21.80;100820.00;;;;5028809;28;20583;-56
2023/05/16 01:57:02;;;;;;;1.87;1.73;;;21.10;57.50;21.70;100829.00;;;;5028505;28;20179;-57
2023/05/16 01:59:28;;;;;;;1.90;1.80;;;21.10;57.50;21.70;100828.00;;;;5035301;28;20262;-55
2023/05/16 02:01:55;;;;;;;1.77;1.67;;;21.10;57.60;21.70;100844.00;;;;5035556;28;20303;-56
2023/05/16 02:04:22;;;;;;;1.83;1.73;;;21.10;57.60;21.70;100846.00;;;;5027441;28;20175;-56
2023/05/16 02:06:48;;;;;;;1.73;1.63;;;21.00;57.50;21.70;100837.00;;;;5028011;28;20205;-56
2023/05/16 02:09:14;;;;;;;1.60;1.50;;;21.00;57.50;21.70;100844.00;;;;5026951;28;20585;-58
2023/05/16 02:11:40;;;;;;;1.97;1.77;;;21.00;57.50;21.70;100843.00;;;;5028554;28;20818;-56
2023/05/16 02:14:05;;;;;;;1.77;1.67;;;21.10;57.60;21.60;100843.00;;;;5028283;28;20661;-57
2023/05/16 02:16:31;;;;;;;1.83;1.73;;;21.00;57.50;21.60;100836.00;;;;5027267;28;20175;-57
2023/05/16 02:18:57;;;;;;;2.10;1.80;;;21.00;57.50;21.60;100848.00;;;;5028070;28;20258;-56
2023/05/16 02:21:23;;;;;;;1.70;1.60;;;21.00;58.10;21.60;100851.00;;;;5027697;28;20205;-57
2023/05/16 02:23:48;;;;;;;1.30;1.30;;;20.90;57.50;21.60;100859.00;;;;5028226;28;20175;-57
2023/05/16 02:26:14;;;;;;;1.80;1.70;;;20.90;57.40;21.60;100861.00;;;;5027295;28;20179;-59
2023/05/16 02:28:40;;;;;;;1.70;1.60;;;20.90;57.40;21.60;100867.00;;;;5031032;28;20182;-57
2023/05/16 02:31:06;;;;;;;1.60;1.50;;;20.90;57.40;21.50;100874.00;;;;5031355;28;20206;-57
2023/05/16 02:33:32;;;;;;;1.67;1.57;;;20.90;57.40;21.50;100884.00;;;;5028450;28;20181;-58
2023/05/16 02:35:57;;;;;;;1.77;1.63;;;20.90;57.40;21.50;100874.00;;;;5027580;28;20175;-57
2023/05/16 02:38:23;;;;;;;2.00;1.90;;;20.90;57.30;21.50;100883.00;;;;5027772;28;20178;-58
2023/05/16 02:40:49;;;;;;;1.80;1.70;;;20.90;57.40;21.50;100888.00;;;;5027715;28;20252;-57
2023/05/16 02:43:15;;;;;;;1.80;1.70;;;20.90;57.40;21.50;100894.00;;;;5028202;28;20209;-57
2023/05/16 02:45:41;;;;;;;2.30;1.80;;;20.80;57.30;21.20;100895.00;;;;5027766;28;20186;-57
2023/05/16 02:48:07;;;;;;;1.90;1.73;;;20.80;57.30;21.50;100896.00;;;;5027134;28;20182;-58
2023/05/16 02:50:33;;;;;;;1.70;1.60;;;20.80;57.20;21.40;100916.00;;;;5028075;28;20191;-57
2023/05/16 02:53:01;;;;;;;1.70;1.60;;;20.80;57.20;21.40;100903.00;;;;5027327;28;20190;-58
2023/05/16 02:55:27;;;;;;;1.93;1.80;;;20.80;57.20;21.40;100903.00;;;;5027184;28;20183;-57
2023/05/16 02:57:53;;;;;;;2.00;1.80;;;20.80;57.90;21.40;100914.00;;;;5027003;28;20175;-57
2023/05/16 03:00:19;;;;;;;2.43;1.80;;;20.80;57.10;21.40;100920.00;;;;5027502;28;20280;-56
2023/05/16 03:02:45;;;;;;;2.07;1.73;;;20.70;57.10;21.40;100916.00;;;;5027540;28;20281;-57
2023/05/16 03:05:10;;;;;;;1.90;1.80;;;20.70;57.00;21.30;100924.00;;;;5027256;28;20186;-57
2023/05/16 03:07:37;;;;;;;2.03;1.90;;;20.70;57.00;21.30;100916.00;;;;5027071;28;20182;-57
2023/05/16 03:10:03;;;;;;;2.10;1.90;;;20.70;57.10;21.30;100926.00;;;;5027565;28;20177;-58
2023/05/16 03:12:29;;;;;;;1.90;1.70;;;20.70;57.10;21.30;100929.00;;;;5021586;28;20191;-57
2023/05/16 03:14:54;;;;;;;2.13;1.90;;;20.70;57.00;21.30;100930.00;;;;5025389;28;20183;-56
2023/05/16 03:17:20;;;;;;;2.63;1.80;;;20.70;57.00;21.30;100921.00;;;;5025388;28;20186;-57
2023/05/16 03:19:46;;;;;;;2.03;1.80;;;20.60;56.90;21.30;100928.00;;;;5027423;28;20584;-56
2023/05/16 03:22:12;;;;;;;1.90;1.70;;;20.60;56.90;21.20;100925.00;;;;5027755;28;20259;-57
2023/05/16 03:24:37;;;;;;;2.43;1.93;;;20.60;56.90;21.20;100929.00;;;;5027825;28;20364;-57
2023/05/16 03:27:04;;;;;;;2.77;2.00;;;20.60;57.30;21.20;100931.00;;;;5021500;28;20194;-57
2023/05/16 03:29:30;;;;;;;3.07;2.00;;;20.60;57.20;21.20;100935.00;;;;5026954;28;20167;-56
2023/05/16 03:31:56;;;;;;;4.33;2.30;;;20.60;57.20;21.20;100931.00;;;;5026630;28;20265;-57
2023/05/16 03:34:21;;;;;;;3.90;2.00;;;20.70;57.20;21.20;100933.00;;;;5027062;28;20250;-56
2023/05/16 03:36:51;;;;;;;3.70;1.70;;;20.60;57.10;21.20;100943.00;;;;5024969;28;20614;-56
2023/05/16 03:39:17;;;;;;;5.87;2.00;;;20.60;57.10;21.20;100942.00;;;;5023462;28;20186;-57
2023/05/16 03:41:43;;;;;;;4.43;1.90;;;20.60;57.10;21.20;100942.00;;;;5026278;28;20210;-57
2023/05/16 03:44:08;;;;;;;3.60;2.17;;;20.60;57.10;21.10;100941.00;;;;5017186;28;20178;-55
2023/05/16 03:46:35;;;;;;;3.83;1.80;;;20.60;57.10;21.10;100949.00;;;;5036240;28;20210;-62
2023/05/16 03:49:00;;;;;;;5.77;1.90;;;20.60;57.20;21.10;100944.00;;;;5043339;28;20579;-56
2023/05/16 03:51:27;;;;;;;3.80;2.30;;;20.50;57.10;21.10;100948.00;;;;5030100;28;20286;-56
2023/05/16 03:53:53;;;;;;;4.13;2.10;;;20.50;57.10;21.10;100955.00;;;;5029677;28;20175;-56
2023/05/16 03:56:20;;;;;;;3.77;2.53;;;20.50;57.10;21.10;100957.00;;;;5026571;28;20278;-56
2023/05/16 03:58:46;;;;;;;3.43;2.20;;;20.50;57.10;21.10;100959.00;;;;5028632;28;20167;-56
2023/05/16 04:01:12;;;;;;;2.93;2.00;;;20.50;57.10;21.00;100970.00;;;;5041257;28;20196;-57
2023/05/16 04:03:38;;;;;;;5.13;2.23;;;20.50;57.10;21.10;100982.00;;;;5033124;28;20190;-56
2023/05/16 04:06:04;;;;;;;2.93;2.17;;;20.50;57.10;21.00;100966.00;;;;5016379;28;20573;-57
2023/05/16 04:08:30;;;;;;;4.07;2.20;;;20.50;57.10;21.00;100977.00;;;;5024558;28;20232;-56
2023/05/16 04:10:56;;;;;;;2.83;2.10;;;20.50;57.10;21.00;100980.00;;;;5030805;28;20203;-57
2023/05/16 04:13:22;;;;;;;2.20;1.90;;;20.40;57.00;21.00;100976.00;;;;5028879;28;20190;-59
2023/05/16 04:15:47;;;;;;;5.60;2.47;;;20.40;57.00;21.00;100988.00;;;;5029034;28;20265;-57
2023/05/16 04:18:13;;;;;;;2.70;1.80;;;20.40;57.00;21.00;100983.00;;;;5030802;28;20171;-57
2023/05/16 04:20:41;;;;;;;5.43;2.50;;;20.40;57.00;20.90;100989.00;;;;5030534;28;20212;-57
2023/05/16 04:23:07;;;;;;;10.70;2.60;;;20.40;57.10;21.00;100988.00;;;;5029780;28;20828;-57
2023/05/16 04:25:33;;;;;;;11.47;3.60;;;20.40;57.30;20.90;100995.00;;;;5030227;28;20175;-57
2023/05/16 04:27:58;;;;;;;15.43;3.80;;;20.40;57.30;20.90;100999.00;;;;5029270;28;20578;-57
2023/05/16 04:30:24;;;;;;;14.43;4.13;;;20.40;57.40;20.90;100998.00;;;;5030398;28;20204;-57
2023/05/16 04:32:50;;;;;;;13.67;4.30;;;20.40;57.60;20.90;101005.00;;;;5030481;28;20178;-56
2023/05/16 04:35:16;;;;;;;12.20;3.93;;;20.40;57.60;20.90;101006.00;;;;5030398;28;20176;-57
2023/05/16 04:37:42;;;;;;;13.53;3.90;;;20.40;57.70;20.90;101009.00;;;;5029672;28;20660;-57
2023/05/16 04:40:09;;;;;;;12.93;3.80;;;20.40;57.80;20.90;101014.00;;;;5029357;28;20183;-56
2023/05/16 04:42:34;;;;;;;15.60;4.00;;;20.40;57.90;20.90;101016.00;;;;5029578;28;20687;-56
2023/05/16 04:45:02;;;;;;;11.33;4.03;;;20.40;58.00;20.90;101023.00;;;;5029215;28;20232;-57
2023/05/16 04:47:28;;;;;;;13.57;3.47;;;20.30;58.00;20.90;101031.00;;;;5029070;28;20207;-58
2023/05/16 04:49:53;;;;;;;11.60;3.50;;;20.30;58.00;20.90;101035.00;;;;5030323;28;20222;-57
2023/05/16 04:52:19;;;;;;;12.30;3.60;;;20.30;57.90;20.90;101038.00;;;;5034649;28;20815;-56
2023/05/16 04:54:45;;;;;;;10.40;3.67;;;20.30;57.90;20.80;101029.00;;;;5029323;28;20170;-57
2023/05/16 04:57:11;;;;;;;9.20;3.37;;;20.30;58.00;20.80;101029.00;;;;5029786;28;20808;-56
2023/05/16 04:59:37;;;;;;;10.57;3.60;;;20.30;57.90;20.80;101032.00;;;;5030820;28;20175;-60
2023/05/16 05:02:03;;;;;;;9.83;3.57;;;20.30;58.00;20.80;101042.00;;;;5029647;28;20197;-57
2023/05/16 05:04:29;;;;;;;10.87;3.27;;;20.30;58.00;20.80;101045.00;;;;5030149;28;20191;-58
2023/05/16 05:06:54;;;;;;;12.33;3.47;;;20.30;58.00;20.80;101050.00;;;;5029969;28;20174;-57
2023/05/16 05:09:20;;;;;;;11.17;3.30;;;20.30;58.00;20.90;101061.00;;;;5029546;28;20172;-58
2023/05/16 05:11:46;;;;;;;10.30;3.13;;;20.30;58.00;20.80;101060.00;;;;5028429;28;20564;-57
2023/05/16 05:14:12;;;;;;;8.57;3.63;;;20.30;58.20;20.90;101068.00;;;;5029668;28;20236;-57
2023/05/16 05:16:38;;;;;;;11.63;3.80;;;20.30;58.10;20.80;101071.00;;;;5030128;28;20214;-58
2023/05/16 05:19:04;;;;;;;9.30;3.00;;;20.30;58.10;20.80;101066.00;;;;5028559;28;20193;-58
2023/05/16 05:21:30;;;;;;;8.60;3.40;;;20.30;58.10;20.80;101078.00;;;;5029694;28;20293;-57
2023/05/16 05:23:56;;;;;;;12.83;3.40;;;20.30;58.10;20.80;101069.00;;;;5030494;28;20205;-58
2023/05/16 05:26:22;;;;;;;8.73;3.13;;;20.30;58.10;20.80;101068.00;;;;5027911;28;20299;-57
2023/05/16 05:28:48;;;;;;;6.70;2.87;;;20.20;58.20;20.80;101077.00;;;;5029147;28;20182;-57
2023/05/16 05:31:14;;;;;;;8.17;3.27;;;20.20;58.10;20.80;101088.00;;;;5027308;28;20198;-57
2023/05/16 05:33:41;;;;;;;7.57;3.20;;;20.20;58.10;20.80;101087.00;;;;5029421;28;20709;-56
2023/05/16 05:36:07;;;;;;;6.67;3.00;;;20.20;58.20;20.80;101087.00;;;;5028597;28;20314;-57
2023/05/16 05:38:32;;;;;;;8.07;3.10;;;20.20;58.20;20.80;101088.00;;;;5028987;28;20213;-57
2023/05/16 05:40:58;;;;;;;6.33;3.17;;;20.20;58.20;20.80;101092.00;;;;5029027;28;20719;-58
2023/05/16 05:43:24;;;;;;;5.47;2.90;;;20.20;58.20;20.80;101100.00;;;;5031040;28;20195;-57
2023/05/16 05:45:50;;;;;;;8.30;3.03;;;20.10;58.20;20.80;101096.00;;;;5031275;28;20176;-58
2023/05/16 05:48:15;;;;;;;6.50;3.00;;;20.20;58.30;20.80;101100.00;;;;5041122;28;20198;-57
2023/05/16 05:50:41;;;;;;;5.43;2.90;;;20.20;58.30;20.70;101112.00;;;;5042933;28;20211;-57
2023/05/16 05:53:07;;;;;;;6.40;2.87;;;20.20;58.30;20.70;101116.00;;;;5029448;28;20722;-57
2023/05/16 05:55:32;;;;;;;7.67;3.00;;;20.10;58.20;20.70;101117.00;;;;5028217;28;20178;-57
2023/05/16 05:57:58;;;;;;;5.53;2.77;;;20.10;58.20;20.70;101110.00;;;;5028116;28;20177;-57
2023/05/16 06:00:24;;;;;;;5.97;2.73;;;20.10;58.30;20.70;101114.00;;;;5028609;28;20201;-57
2023/05/16 06:02:50;;;;;;;5.50;2.80;;;20.10;58.30;20.70;101108.00;;;;5042477;28;20220;-57
2023/05/16 06:05:16;;;;;;;5.00;2.87;;;20.10;58.30;20.70;101118.00;;;;5044924;28;20178;-58
2023/05/16 06:07:42;;;;;;;5.77;2.97;;;20.10;58.40;20.70;101125.00;;;;5028652;28;20671;-57
2023/05/16 06:10:08;;;;;;;4.63;2.63;;;20.10;59.00;20.70;101121.00;;;;5029377;28;20171;-59
2023/05/16 06:12:33;;;;;;;5.83;2.63;;;20.00;58.30;20.70;101127.00;;;;5028266;28;20188;-58
2023/05/16 06:14:59;;;;;;;4.53;2.67;;;20.00;58.30;20.70;101128.00;;;;5028930;28;20581;-59
2023/05/16 06:17:25;;;;;;;4.70;2.57;;;20.00;58.40;20.70;101147.00;;;;5028144;28;20182;-57
2023/05/16 06:19:51;;;;;;;5.60;2.80;;;20.00;58.40;20.60;101129.00;;;;5028697;28;20209;-59
2023/05/16 06:22:16;;;;;;;5.07;2.70;;;20.00;58.40;20.60;101138.00;;;;5027880;28;20693;-58
2023/05/16 06:24:42;;;;;;;5.50;2.60;;;20.00;58.40;20.60;101133.00;;;;5029166;28;20171;-58
2023/05/16 06:27:08;;;;;;;4.67;2.60;;;20.00;58.50;20.60;101134.00;;;;5028868;28;20175;-57
2023/05/16 06:29:33;;;;;;;4.60;2.70;;;20.00;58.50;20.60;101138.00;;;;5028641;28;20272;-57
2023/05/16 06:31:59;;;;;;;4.27;2.40;;;19.90;58.50;20.60;101131.00;;;;5028517;28;20207;-59
2023/05/16 06:34:28;;;;;;;4.17;2.70;;;20.00;58.50;20.60;101154.00;;;;5029786;28;20257;-58
2023/05/16 06:36:54;;;;;;;5.70;2.53;;;20.00;58.60;20.60;101146.00;;;;5028507;28;20184;-57
2023/05/16 06:39:20;;;;;;;5.60;2.50;;;20.00;58.80;20.60;101141.00;;;;5029214;28;20272;-58
2023/05/16 06:41:45;;;;;;;4.20;2.53;;;19.90;58.70;20.60;101142.00;;;;5028617;28;20208;-58
2023/05/16 06:44:11;;;;;;;4.97;2.40;;;20.00;58.80;20.50;101144.00;;;;5027373;28;20174;-56
2023/05/16 06:46:37;;;;;;;5.60;2.60;;;19.90;58.80;20.60;101143.00;;;;5028033;28;20182;-58
2023/05/16 06:49:03;;;;;;;4.20;2.33;;;19.90;59.20;20.60;101135.00;;;;5028161;28;20211;-58
2023/05/16 06:51:30;;;;;;;5.40;2.77;;;19.90;59.70;20.50;101146.00;;;;5028046;28;20244;-58
2023/05/16 06:53:56;;;;;;;5.30;2.50;;;19.90;61.40;20.50;101150.00;;;;5027209;28;20264;-58
2023/05/16 06:56:22;;;;;;;5.57;2.50;;;19.90;60.70;20.50;101147.00;;;;5027230;28;20542;-58
2023/05/16 06:58:48;;;;;;;4.97;2.70;;;19.90;61.50;20.50;101146.00;;;;5026296;28;20272;-58
2023/05/16 07:01:15;;;;;;;6.40;2.60;;;19.90;61.70;20.50;101152.00;;;;5027304;28;20288;-59
2023/05/16 07:03:41;;;;;;;9.50;2.70;;;19.90;61.90;20.50;101147.00;;;;5026813;28;20195;-58
2023/05/16 07:06:06;;;;;;;4.87;2.27;;;19.90;61.70;20.50;101150.00;;;;5027094;28;20178;-57
2023/05/16 07:08:34;;;;;;;3.73;2.40;;;19.90;61.40;20.50;101145.00;;;;5028657;28;20167;-59
2023/05/16 07:11:00;;;;;;;4.53;2.30;;;19.90;61.50;20.50;101161.00;;;;5028448;28;20199;-59
2023/05/16 07:13:26;;;;;;;5.53;2.40;;;19.90;61.40;20.50;101157.00;;;;5028358;28;20207;-58
2023/05/16 07:15:51;;;;;;;6.90;2.77;;;19.80;61.30;20.50;101165.00;;;;5035979;28;20260;-59
2023/05/16 07:18:17;;;;;;;3.60;2.30;;;19.80;61.10;20.50;101164.00;;;;5035529;28;20185;-58
2023/05/16 07:20:43;;;;;;;4.33;2.37;;;19.80;61.10;20.50;101169.00;;;;5029359;28;20233;-59
2023/05/16 07:23:09;;;;;;;4.87;2.40;;;19.80;61.10;20.40;101171.00;;;;5029074;28;20200;-57
2023/05/16 07:25:35;;;;;;;5.10;2.53;;;19.80;60.80;20.40;101161.00;;;;5028794;28;20171;-59
2023/05/16 07:28:01;;;;;;;4.43;2.30;;;19.80;60.50;20.40;101164.00;;;;5027196;28;20262;-59
2023/05/16 07:30:26;;;;;;;5.13;2.20;;;19.80;60.40;20.40;101180.00;;;;5027866;28;20196;-58
2023/05/16 07:32:52;;;;;;;4.20;2.23;;;19.80;60.30;20.40;101177.00;;;;5027789;28;20266;-59
2023/05/16 07:35:18;;;;;;;6.13;2.50;;;19.70;60.00;20.40;101178.00;;;;5027931;28;20175;-58
2023/05/16 07:37:44;;;;;;;2.63;2.20;;;19.70;59.80;20.40;101177.00;;;;5027487;28;20172;-59
2023/05/16 07:40:10;;;;;;;4.57;2.40;;;19.70;59.80;20.30;101175.00;;;;5028231;28;20189;-57
2023/05/16 07:42:36;;;;;;;3.23;2.30;;;19.70;59.70;20.30;101178.00;;;;5029990;28;20670;-58
2023/05/16 07:45:02;;;;;;;4.07;2.53;;;19.70;59.60;20.30;101179.00;;;;5031359;28;20173;-58
2023/05/16 07:47:28;;;;;;;3.50;2.00;;;19.70;59.40;20.30;101170.00;;;;5031576;28;20175;-58
2023/05/16 07:49:54;;;;;;;3.83;2.10;;;19.70;59.30;20.30;101176.00;;;;5032503;28;20184;-58
2023/05/16 07:52:20;;;;;;;4.50;2.30;;;19.70;59.30;20.30;101173.00;;;;5048787;28;20201;-58
2023/05/16 07:54:46;;;;;;;3.67;1.93;;;19.70;59.20;20.30;101172.00;;;;5040026;28;20182;-58
2023/05/16 07:57:14;;;;;;;5.17;2.47;;;19.70;59.20;20.30;101165.00;;;;5031479;28;20196;-57
2023/05/16 07:59:39;;;;;;;4.33;2.43;;;19.60;59.10;20.30;101171.00;;;;5030702;28;20202;-58
2023/05/16 08:02:05;;;;;;;4.03;2.30;;;19.70;59.10;20.20;101182.00;;;;5030575;28;20254;-60
2023/05/16 08:04:31;;;;;;;6.77;2.63;;;19.60;59.10;20.20;101180.00;;;;5030561;28;20189;-57
2023/05/16 08:06:57;;;;;;;5.73;2.50;;;19.60;59.00;20.20;101116.00;;;;5041274;28;20267;-59
2023/05/16 08:09:22;;;;;;;6.37;2.40;;;19.60;59.00;20.20;101178.00;;;;5031079;28;20182;-58
2023/05/16 08:11:48;;;;;;;4.03;2.17;;;19.60;58.90;20.20;101181.00;;;;5032046;28;20214;-58
2023/05/16 08:14:14;;;;;;;6.63;2.23;;;19.60;58.90;20.20;101193.00;;;;5031922;28;20208;-58
2023/05/16 08:16:39;;;;;;;8.60;2.47;;;19.60;58.80;20.20;101177.00;;;;5031515;28;20177;-58
2023/05/16 08:19:06;;;;;;;5.50;2.20;;;19.60;58.90;20.20;101181.00;;;;5031794;28;20197;-58
2023/05/16 08:21:32;;;;;;;6.93;2.73;;;19.60;58.90;20.20;101171.00;;;;5031959;28;20291;-59
2023/05/16 08:23:58;;;;;;;5.00;2.40;;;19.60;58.80;20.20;101188.00;;;;5030731;28;20175;-59
2023/05/16 08:26:24;;;;;;;5.00;2.43;;;19.60;58.80;20.10;101183.00;;;;5030058;28;20653;-59
2023/05/16 08:28:49;;;;;;;5.70;2.10;;;19.50;58.80;20.20;101187.00;;;;5031007;28;20261;-58
2023/05/16 08:31:15;;;;;;;4.60;2.30;;;19.60;58.90;20.20;101183.00;;;;5031572;28;20216;-58
2023/05/16 08:33:41;;;;;;;4.83;2.40;;;19.60;59.00;20.10;101192.00;;;;5030110;28;20252;-58
2023/05/16 08:36:08;;;;;;;6.93;2.20;;;19.50;59.00;20.10;101189.00;;;;5031117;28;20175;-59
2023/05/16 08:38:34;;;;;;;15.30;2.83;;;19.60;59.20;20.10;101183.00;;;;5030155;28;20176;-58
2023/05/16 08:41:00;;;;;;;15.20;3.00;;;19.60;59.30;20.10;101188.00;;;;5031384;28;20661;-59
2023/05/16 08:43:25;;;;;;;11.10;2.90;;;19.50;59.30;20.10;101178.00;;;;5030181;28;20205;-58
2023/05/16 08:45:51;;;;;;;7.53;2.67;;;19.60;59.50;20.10;101177.00;;;;5031256;28;20584;-58
2023/05/16 08:48:17;;;;;;;7.50;2.63;;;19.50;59.40;20.10;101183.00;;;;5013258;28;20636;-58
2023/05/16 08:50:42;;;;;;;12.80;2.87;;;19.50;59.50;20.10;101183.00;;;;5030290;28;20197;-59
2023/05/16 08:53:08;;;;;;;10.50;3.17;;;19.50;59.50;20.10;101185.00;;;;5029804;28;20171;-58
2023/05/16 08:55:35;;;;;;;7.53;2.83;;;19.50;59.40;20.10;101190.00;;;;5029012;28;20191;-59
2023/05/16 08:58:01;;;;;;;6.70;2.47;;;19.50;59.50;20.10;101194.00;;;;5029442;28;20183;-59
2023/05/16 09:00:27;;;;;;;6.27;2.47;;;19.60;59.60;20.10;101190.00;;;;5029929;28;20764;-58
2023/05/16 09:02:52;;;;;;;12.30;2.80;;;19.50;59.60;20.10;101180.00;;;;5031093;28;20208;-58
2023/05/16 09:05:18;;;;;;;5.83;2.30;;;19.50;59.60;20.10;101193.00;;;;5028914;28;20229;-60
2023/05/16 09:07:44;;;;;;;6.47;2.43;;;19.50;59.70;20.00;101194.00;;;;5027881;28;20232;-60
2023/05/16 09:10:10;;;;;;;6.63;2.37;;;19.50;60.00;20.10;101186.00;;;;5030788;28;20167;-59
2023/05/16 09:12:36;;;;;;;7.87;2.70;;;19.50;60.10;20.10;101183.00;;;;5030945;28;20550;-59
2023/05/16 09:15:04;;;;;;;10.73;2.87;;;19.50;60.10;20.10;101106.00;;;;5030688;28;20180;-58
2023/05/16 09:17:45;;;;;;;8.77;2.60;;;19.50;60.20;20.10;101182.00;;;;5012829;28;20680;-58
2023/05/16 09:20:15;;;;;;;9.87;2.60;;;19.50;60.20;20.10;101189.00;;;;5031116;28;20179;-58
2023/05/16 09:22:56;;;;;;;13.80;3.10;;;19.50;60.20;20.10;101183.00;;;;5013556;28;20688;-58
2023/05/16 09:25:24;;;;;;;15.17;3.07;;;19.50;60.30;20.10;101192.00;;;;5030455;28;20270;-58
2023/05/16 09:27:54;;;;;;;10.33;2.97;;;19.50;60.20;20.10;101191.00;;;;5029941;28;20738;-59
2023/05/16 09:30:28;;;;;;;10.13;2.70;;;19.50;60.10;20.10;101196.00;;;;5030335;28;20196;-58
2023/05/16 09:32:54;;;;;;;10.67;2.60;;;19.50;59.90;20.10;101188.00;;;;5030670;28;20179;-58
2023/05/16 09:35:20;;;;;;;9.47;2.50;;;19.50;60.00;20.10;101188.00;;;;5029626;28;20175;-58
2023/05/16 09:37:47;;;;;;;7.43;2.73;;;19.50;59.50;20.10;101185.00;;;;5031569;28;20179;-57
2023/05/16 09:40:13;;;;;;;7.57;2.33;;;19.50;59.60;20.10;101193.00;;;;5036424;28;20239;-58
2023/05/16 09:42:39;;;;;;;6.20;2.30;;;19.50;59.60;20.10;101180.00;;;;5032157;28;20214;-58
2023/05/16 09:45:05;;;;;;;8.03;2.40;;;19.50;59.50;20.10;101176.00;;;;5030216;28;20195;-57
2023/05/16 09:47:31;;;;;;;9.90;2.53;;;19.50;59.40;20.00;101159.00;;;;5028806;28;20185;-58
2023/05/16 09:49:57;;;;;;;9.07;2.60;;;19.50;58.90;20.00;101175.00;;;;5013670;28;20176;-58
2023/05/16 09:52:26;;;;;;;7.57;2.43;;;19.40;58.80;20.00;101181.00;;;;5010960;28;20199;-58
2023/05/16 09:54:52;;;;;;;11.33;2.60;;;19.40;59.10;20.00;101172.00;;;;5033383;28;20288;-58
2023/05/16 09:57:19;;;;;;;10.03;2.40;;;19.40;59.40;20.00;101186.00;;;;5033731;28;20664;-58
2023/05/16 09:59:44;;;;;;;7.63;2.27;;;19.40;59.60;20.00;101182.00;;;;5039697;28;20181;-59
2023/05/16 10:02:10;;;;;;;12.27;2.50;;;19.40;59.50;20.00;101173.00;;;;5030167;28;20202;-59
2023/05/16 10:04:37;;;;;;;7.03;2.17;;;19.40;59.60;20.00;101186.00;;;;5030688;28;20655;-59
2023/05/16 10:07:03;;;;;;;9.83;2.20;;;19.40;59.60;20.00;101180.00;;;;5030080;28;20644;-58
2023/05/16 10:09:32;;;;;;;7.60;2.37;;;19.40;59.60;20.00;101170.00;;;;5028182;28;20172;-59
2023/05/16 10:12:02;;;;;;;7.33;2.37;;;19.40;59.40;20.00;101173.00;;;;5047163;28;20222;-59
2023/05/16 10:14:30;;;;;;;4.70;2.20;;;19.40;59.20;20.00;101174.00;;;;5030894;28;20175;-59
2023/05/16 10:16:56;;;;;;;5.87;2.20;;;19.40;59.00;20.00;101176.00;;;;5029550;28;20187;-59
2023/05/16 10:19:22;;;;;;;4.87;2.03;;;19.40;59.00;20.00;101153.00;;;;5030631;28;20179;-59
2023/05/16 10:21:51;;;;;;;4.87;2.20;;;19.40;58.90;20.00;101185.00;;;;5028867;28;20207;-59
2023/05/16 10:24:23;;;;;;;5.73;2.20;;;19.50;59.00;20.00;101182.00;;;;5029907;28;20685;-59
2023/05/16 10:26:50;;;;;;;5.73;2.00;;;19.40;59.00;20.00;101179.00;;;;5028445;28;20232;-59
2023/05/16 10:29:16;;;;;;;7.30;2.10;;;19.40;59.00;20.00;101179.00;;;;5028710;28;20524;-59
2023/05/16 10:31:42;;;;;;;4.43;1.83;;;19.40;59.00;20.00;101192.00;;;;5024610;28;20230;-59
2023/05/16 10:34:09;;;;;;;5.27;2.00;;;19.40;59.10;20.00;101176.00;;;;5028013;28;20197;-59
2023/05/16 10:36:35;;;;;;;2.57;1.70;;;19.40;59.00;20.00;101177.00;;;;5027192;28;20183;-59
2023/05/16 10:39:01;;;;;;;3.47;2.07;;;19.40;59.10;20.10;101184.00;;;;5011089;28;20176;-59
2023/05/16 10:41:26;;;;;;;6.50;2.17;;;19.50;59.00;20.10;101127.00;;;;5024589;28;20324;-58
2023/05/16 10:43:56;;;;;;;7.13;2.30;;;19.40;58.90;20.10;101168.00;;;;5025053;28;20182;-59